sensor_id;sensor_type;location;lat;lon;timestamp;temperature;humidity
68011;DHT22;54794;48.348;7.878;2024-01-06T00:00:25;10.10;66.50
68011;DHT22;54794;48.348;7.878;2024-01-06T00:02:51;10.10;66.50
68011;DHT22;54794;48.348;7.878;2024-01-06T00:05:18;10.10;66.50
68011;DHT22;54794;48.348;7.878;2024-01-06T00:07:45;10.10;66.50
68011;DHT22;54794;48.348;7.878;2024-01-06T00:10:12;10.10;66.40
68011;DHT22;54794;48.348;7.878;2024-01-06T00:12:42;10.10;66.40
68011;DHT22;54794;48.348;7.878;2024-01-06T00:15:09;10.10;66.40
68011;DHT22;54794;48.348;7.878;2024-01-06T00:17:37;10.10;66.40
68011;DHT22;54794;48.348;7.878;2024-01-06T00:20:04;10.00;66.30
68011;DHT22;54794;48.348;7.878;2024-01-06T00:22:32;10.10;66.40
68011;DHT22;54794;48.348;7.878;2024-01-06T00:24:59;10.00;66.30
68011;DHT22;54794;48.348;7.878;2024-01-06T00:27:26;10.00;66.40
68011;DHT22;54794;48.348;7.878;2024-01-06T00:29:53;10.00;66.30
68011;DHT22;54794;48.348;7.878;2024-01-06T00:32:20;10.00;66.30
68011;DHT22;54794;48.348;7.878;2024-01-06T00:34:46;9.90;66.20
68011;DHT22;54794;48.348;7.878;2024-01-06T00:37:14;9.90;66.30
68011;DHT22;54794;48.348;7.878;2024-01-06T00:39:41;10.00;66.30
68011;DHT22;54794;48.348;7.878;2024-01-06T00:42:07;9.90;66.30
68011;DHT22;54794;48.348;7.878;2024-01-06T00:44:36;9.90;66.30
68011;DHT22;54794;48.348;7.878;2024-01-06T00:47:03;9.90;66.20
68011;DHT22;54794;48.348;7.878;2024-01-06T00:49:30;9.90;66.20
68011;DHT22;54794;48.348;7.878;2024-01-06T00:51:57;9.80;66.20
68011;DHT22;54794;48.348;7.878;2024-01-06T00:54:24;9.80;66.10
68011;DHT22;54794;48.348;7.878;2024-01-06T00:56:51;9.80;66.10
68011;DHT22;54794;48.348;7.878;2024-01-06T00:59:20;10.10;66.30
68011;DHT22;54794;48.348;7.878;2024-01-06T01:01:47;9.80;66.20
68011;DHT22;54794;48.348;7.878;2024-01-06T01:04:14;9.80;66.20
68011;DHT22;54794;48.348;7.878;2024-01-06T01:06:41;9.70;66.20
68011;DHT22;54794;48.348;7.878;2024-01-06T01:09:08;9.90;66.30
68011;DHT22;54794;48.348;7.878;2024-01-06T01:11:37;9.70;66.20
68011;DHT22;54794;48.348;7.878;2024-01-06T01:14:03;10.10;66.40
68011;DHT22;54794;48.348;7.878;2024-01-06T01:16:30;9.80;66.30
68011;DHT22;54794;48.348;7.878;2024-01-06T01:18:58;9.90;66.40
68011;DHT22;54794;48.348;7.878;2024-01-06T01:21:25;9.60;66.20
68011;DHT22;54794;48.348;7.878;2024-01-06T01:23:52;9.70;66.30
68011;DHT22;54794;48.348;7.878;2024-01-06T01:26:19;9.60;66.30
68011;DHT22;54794;48.348;7.878;2024-01-06T01:28:46;9.60;66.30
68011;DHT22;54794;48.348;7.878;2024-01-06T01:31:13;9.60;66.40
68011;DHT22;54794;48.348;7.878;2024-01-06T01:33:40;9.60;66.40
68011;DHT22;54794;48.348;7.878;2024-01-06T01:36:07;9.60;66.50
68011;DHT22;54794;48.348;7.878;2024-01-06T01:38:34;9.60;66.50
68011;DHT22;54794;48.348;7.878;2024-01-06T01:41:00;9.50;66.40
68011;DHT22;54794;48.348;7.878;2024-01-06T01:43:27;9.70;66.60
68011;DHT22;54794;48.348;7.878;2024-01-06T01:45:56;9.60;66.60
68011;DHT22;54794;48.348;7.878;2024-01-06T01:48:24;9.50;66.50
68011;DHT22;54794;48.348;7.878;2024-01-06T01:50:53;9.50;66.60
68011;DHT22;54794;48.348;7.878;2024-01-06T01:53:20;9.50;66.50
68011;DHT22;54794;48.348;7.878;2024-01-06T01:55:48;9.50;66.50
68011;DHT22;54794;48.348;7.878;2024-01-06T01:58:16;9.70;66.70
68011;DHT22;54794;48.348;7.878;2024-01-06T02:00:43;9.60;66.70
68011;DHT22;54794;48.348;7.878;2024-01-06T02:03:11;9.50;66.60
68011;DHT22;54794;48.348;7.878;2024-01-06T02:05:40;9.50;66.70
68011;DHT22;54794;48.348;7.878;2024-01-06T02:08:07;9.50;66.70
68011;DHT22;54794;48.348;7.878;2024-01-06T02:10:35;9.40;66.60
68011;DHT22;54794;48.348;7.878;2024-01-06T02:13:12;9.50;66.70
68011;DHT22;54794;48.348;7.878;2024-01-06T02:15:39;9.40;66.70
68011;DHT22;54794;48.348;7.878;2024-01-06T02:18:06;9.40;66.70
68011;DHT22;54794;48.348;7.878;2024-01-06T02:20:34;9.40;66.70
68011;DHT22;54794;48.348;7.878;2024-01-06T02:23:01;9.40;66.70
68011;DHT22;54794;48.348;7.878;2024-01-06T02:25:28;9.30;66.50
68011;DHT22;54794;48.348;7.878;2024-01-06T02:27:55;9.40;66.60
68011;DHT22;54794;48.348;7.878;2024-01-06T02:30:22;9.30;66.60
68011;DHT22;54794;48.348;7.878;2024-01-06T02:32:49;9.30;66.50
68011;DHT22;54794;48.348;7.878;2024-01-06T02:35:16;9.30;66.60
68011;DHT22;54794;48.348;7.878;2024-01-06T02:37:43;9.30;66.70
68011;DHT22;54794;48.348;7.878;2024-01-06T02:40:10;9.20;66.70
68011;DHT22;54794;48.348;7.878;2024-01-06T02:42:37;9.20;66.70
68011;DHT22;54794;48.348;7.878;2024-01-06T02:45:04;9.50;66.90
68011;DHT22;54794;48.348;7.878;2024-01-06T02:47:32;9.20;66.80
68011;DHT22;54794;48.348;7.878;2024-01-06T02:49:59;9.20;66.80
68011;DHT22;54794;48.348;7.878;2024-01-06T02:52:26;9.20;66.90
68011;DHT22;54794;48.348;7.878;2024-01-06T02:54:52;9.20;66.90
68011;DHT22;54794;48.348;7.878;2024-01-06T02:57:19;9.20;66.90
68011;DHT22;54794;48.348;7.878;2024-01-06T02:59:46;9.10;66.90
68011;DHT22;54794;48.348;7.878;2024-01-06T03:02:13;9.10;66.90
68011;DHT22;54794;48.348;7.878;2024-01-06T03:04:40;9.10;66.90
68011;DHT22;54794;48.348;7.878;2024-01-06T03:07:07;9.10;66.90
68011;DHT22;54794;48.348;7.878;2024-01-06T03:09:33;9.10;66.90
68011;DHT22;54794;48.348;7.878;2024-01-06T03:12:00;9.10;66.90
68011;DHT22;54794;48.348;7.878;2024-01-06T03:14:27;9.10;66.90
68011;DHT22;54794;48.348;7.878;2024-01-06T03:16:54;9.00;66.90
68011;DHT22;54794;48.348;7.878;2024-01-06T03:19:21;9.00;66.90
68011;DHT22;54794;48.348;7.878;2024-01-06T03:21:53;9.00;66.90
68011;DHT22;54794;48.348;7.878;2024-01-06T03:24:21;8.90;66.90
68011;DHT22;54794;48.348;7.878;2024-01-06T03:26:49;8.90;67.00
68011;DHT22;54794;48.348;7.878;2024-01-06T03:29:16;8.90;67.00
68011;DHT22;54794;48.348;7.878;2024-01-06T03:31:44;8.80;67.00
68011;DHT22;54794;48.348;7.878;2024-01-06T03:34:11;8.80;67.10
68011;DHT22;54794;48.348;7.878;2024-01-06T03:36:39;8.80;67.20
68011;DHT22;54794;48.348;7.878;2024-01-06T03:39:07;8.80;67.20
68011;DHT22;54794;48.348;7.878;2024-01-06T03:41:34;8.70;67.20
68011;DHT22;54794;48.348;7.878;2024-01-06T03:44:01;8.80;67.30
68011;DHT22;54794;48.348;7.878;2024-01-06T03:46:28;8.80;67.00
68011;DHT22;54794;48.348;7.878;2024-01-06T03:48:54;8.80;67.10
68011;DHT22;54794;48.348;7.878;2024-01-06T03:51:22;8.80;67.10
68011;DHT22;54794;48.348;7.878;2024-01-06T03:53:51;8.80;67.20
68011;DHT22;54794;48.348;7.878;2024-01-06T03:56:18;8.80;67.10
68011;DHT22;54794;48.348;7.878;2024-01-06T03:58:45;8.70;67.10
68011;DHT22;54794;48.348;7.878;2024-01-06T04:01:12;8.70;67.10
68011;DHT22;54794;48.348;7.878;2024-01-06T04:03:39;8.70;67.10
68011;DHT22;54794;48.348;7.878;2024-01-06T04:06:09;8.70;67.20
68011;DHT22;54794;48.348;7.878;2024-01-06T04:08:36;8.70;67.30
68011;DHT22;54794;48.348;7.878;2024-01-06T04:11:05;8.90;67.40
68011;DHT22;54794;48.348;7.878;2024-01-06T04:13:32;9.20;67.60
68011;DHT22;54794;48.348;7.878;2024-01-06T04:15:58;8.70;67.40
68011;DHT22;54794;48.348;7.878;2024-01-06T04:18:25;8.70;67.40
68011;DHT22;54794;48.348;7.878;2024-01-06T04:20:52;8.70;67.40
68011;DHT22;54794;48.348;7.878;2024-01-06T04:23:19;8.70;67.50
68011;DHT22;54794;48.348;7.878;2024-01-06T04:25:51;8.70;67.40
68011;DHT22;54794;48.348;7.878;2024-01-06T04:28:18;8.70;67.40
68011;DHT22;54794;48.348;7.878;2024-01-06T04:30:45;9.10;67.60
68011;DHT22;54794;48.348;7.878;2024-01-06T04:33:12;8.70;67.20
68011;DHT22;54794;48.348;7.878;2024-01-06T04:35:39;9.00;67.40
68011;DHT22;54794;48.348;7.878;2024-01-06T04:38:06;9.10;67.50
68011;DHT22;54794;48.348;7.878;2024-01-06T04:40:32;8.50;67.20
68011;DHT22;54794;48.348;7.878;2024-01-06T04:43:01;8.70;67.30
68011;DHT22;54794;48.348;7.878;2024-01-06T04:45:29;8.60;67.20
68011;DHT22;54794;48.348;7.878;2024-01-06T04:47:56;8.60;67.30
68011;DHT22;54794;48.348;7.878;2024-01-06T04:50:23;8.60;67.30
68011;DHT22;54794;48.348;7.878;2024-01-06T04:52:50;8.60;67.30
68011;DHT22;54794;48.348;7.878;2024-01-06T04:55:16;8.60;67.30
68011;DHT22;54794;48.348;7.878;2024-01-06T04:57:43;8.60;67.30
68011;DHT22;54794;48.348;7.878;2024-01-06T05:00:11;8.60;67.30
68011;DHT22;54794;48.348;7.878;2024-01-06T05:02:38;8.50;67.30
68011;DHT22;54794;48.348;7.878;2024-01-06T05:05:06;8.60;67.40
68011;DHT22;54794;48.348;7.878;2024-01-06T05:07:32;8.60;67.40
68011;DHT22;54794;48.348;7.878;2024-01-06T05:09:59;8.60;67.40
68011;DHT22;54794;48.348;7.878;2024-01-06T05:12:26;8.50;67.40
68011;DHT22;54794;48.348;7.878;2024-01-06T05:14:53;8.50;67.40
68011;DHT22;54794;48.348;7.878;2024-01-06T05:17:20;8.60;67.50
68011;DHT22;54794;48.348;7.878;2024-01-06T05:19:47;8.60;67.50
68011;DHT22;54794;48.348;7.878;2024-01-06T05:22:14;8.60;67.50
68011;DHT22;54794;48.348;7.878;2024-01-06T05:24:41;8.60;67.50
68011;DHT22;54794;48.348;7.878;2024-01-06T05:27:08;8.50;67.40
68011;DHT22;54794;48.348;7.878;2024-01-06T05:29:39;8.50;68.00
68011;DHT22;54794;48.348;7.878;2024-01-06T05:32:06;8.60;67.50
68011;DHT22;54794;48.348;7.878;2024-01-06T05:34:33;8.60;67.50
68011;DHT22;54794;48.348;7.878;2024-01-06T05:37:00;8.60;67.60
68011;DHT22;54794;48.348;7.878;2024-01-06T05:39:27;8.60;67.30
68011;DHT22;54794;48.348;7.878;2024-01-06T05:41:54;8.60;67.30
68011;DHT22;54794;48.348;7.878;2024-01-06T05:44:21;8.60;67.40
68011;DHT22;54794;48.348;7.878;2024-01-06T05:46:48;8.90;67.60
68011;DHT22;54794;48.348;7.878;2024-01-06T05:49:15;8.50;67.40
68011;DHT22;54794;48.348;7.878;2024-01-06T05:51:45;8.50;67.40
68011;DHT22;54794;48.348;7.878;2024-01-06T05:54:12;9.10;67.80
68011;DHT22;54794;48.348;7.878;2024-01-06T05:56:39;8.70;67.50
68011;DHT22;54794;48.348;7.878;2024-01-06T05:59:06;8.50;67.40
68011;DHT22;54794;48.348;7.878;2024-01-06T06:01:33;8.50;67.40
68011;DHT22;54794;48.348;7.878;2024-01-06T06:04:00;8.40;67.40
68011;DHT22;54794;48.348;7.878;2024-01-06T06:06:28;8.40;67.40
68011;DHT22;54794;48.348;7.878;2024-01-06T06:08:54;8.40;67.50
68011;DHT22;54794;48.348;7.878;2024-01-06T06:11:21;9.10;67.90
68011;DHT22;54794;48.348;7.878;2024-01-06T06:13:48;8.30;68.10
68011;DHT22;54794;48.348;7.878;2024-01-06T06:16:15;8.30;67.50
68011;DHT22;54794;48.348;7.878;2024-01-06T06:18:42;8.30;67.60
68011;DHT22;54794;48.348;7.878;2024-01-06T06:21:09;8.50;67.80
68011;DHT22;54794;48.348;7.878;2024-01-06T06:23:36;8.40;67.80
68011;DHT22;54794;48.348;7.878;2024-01-06T06:26:05;8.80;68.00
68011;DHT22;54794;48.348;7.878;2024-01-06T06:28:34;8.30;67.70
68011;DHT22;54794;48.348;7.878;2024-01-06T06:31:01;8.30;67.70
68011;DHT22;54794;48.348;7.878;2024-01-06T06:33:29;8.40;67.80
68011;DHT22;54794;48.348;7.878;2024-01-06T06:35:57;8.30;67.80
68011;DHT22;54794;48.348;7.878;2024-01-06T06:38:25;8.40;68.00
68011;DHT22;54794;48.348;7.878;2024-01-06T06:40:53;8.30;67.70
68011;DHT22;54794;48.348;7.878;2024-01-06T06:43:20;8.40;67.80
68011;DHT22;54794;48.348;7.878;2024-01-06T06:45:47;8.20;67.70
68011;DHT22;54794;48.348;7.878;2024-01-06T06:48:14;8.30;67.80
68011;DHT22;54794;48.348;7.878;2024-01-06T06:50:41;8.30;67.80
68011;DHT22;54794;48.348;7.878;2024-01-06T06:53:08;8.40;67.90
68011;DHT22;54794;48.348;7.878;2024-01-06T06:55:35;8.40;67.90
68011;DHT22;54794;48.348;7.878;2024-01-06T06:58:05;8.20;67.80
68011;DHT22;54794;48.348;7.878;2024-01-06T07:00:32;8.60;68.00
68011;DHT22;54794;48.348;7.878;2024-01-06T07:02:59;8.50;68.00
68011;DHT22;54794;48.348;7.878;2024-01-06T07:05:27;8.40;67.70
68011;DHT22;54794;48.348;7.878;2024-01-06T07:07:54;8.60;67.80
68011;DHT22;54794;48.348;7.878;2024-01-06T07:10:22;8.60;67.90
68011;DHT22;54794;48.348;7.878;2024-01-06T07:12:49;8.50;67.90
68011;DHT22;54794;48.348;7.878;2024-01-06T07:15:16;8.50;67.80
68011;DHT22;54794;48.348;7.878;2024-01-06T07:17:43;8.40;67.70
68011;DHT22;54794;48.348;7.878;2024-01-06T07:20:10;8.50;67.90
68011;DHT22;54794;48.348;7.878;2024-01-06T07:22:37;8.40;67.80
68011;DHT22;54794;48.348;7.878;2024-01-06T07:25:04;8.60;68.00
68011;DHT22;54794;48.348;7.878;2024-01-06T07:27:32;8.40;67.90
68011;DHT22;54794;48.348;7.878;2024-01-06T07:29:59;8.40;67.90
68011;DHT22;54794;48.348;7.878;2024-01-06T07:32:26;8.40;67.90
68011;DHT22;54794;48.348;7.878;2024-01-06T07:34:53;8.60;68.00
68011;DHT22;54794;48.348;7.878;2024-01-06T07:37:20;8.40;67.90
68011;DHT22;54794;48.348;7.878;2024-01-06T07:39:47;8.80;68.10
68011;DHT22;54794;48.348;7.878;2024-01-06T07:42:14;8.40;68.00
68011;DHT22;54794;48.348;7.878;2024-01-06T07:44:41;8.40;67.90
68011;DHT22;54794;48.348;7.878;2024-01-06T07:47:08;8.40;68.00
68011;DHT22;54794;48.348;7.878;2024-01-06T07:49:35;8.70;68.20
68011;DHT22;54794;48.348;7.878;2024-01-06T07:52:02;8.30;67.90
68011;DHT22;54794;48.348;7.878;2024-01-06T07:54:30;8.40;68.00
68011;DHT22;54794;48.348;7.878;2024-01-06T07:56:57;8.50;68.10
68011;DHT22;54794;48.348;7.878;2024-01-06T07:59:24;8.40;68.00
68011;DHT22;54794;48.348;7.878;2024-01-06T08:01:51;8.50;68.00
68011;DHT22;54794;48.348;7.878;2024-01-06T08:04:18;8.80;68.20
68011;DHT22;54794;48.348;7.878;2024-01-06T08:06:45;8.30;67.90
68011;DHT22;54794;48.348;7.878;2024-01-06T08:09:12;8.60;68.10
68011;DHT22;54794;48.348;7.878;2024-01-06T08:11:39;8.70;68.20
68011;DHT22;54794;48.348;7.878;2024-01-06T08:14:06;8.50;68.00
68011;DHT22;54794;48.348;7.878;2024-01-06T08:16:33;8.50;68.00
68011;DHT22;54794;48.348;7.878;2024-01-06T08:19:00;8.50;68.00
68011;DHT22;54794;48.348;7.878;2024-01-06T08:21:26;8.50;68.10
68011;DHT22;54794;48.348;7.878;2024-01-06T08:23:54;8.50;68.10
68011;DHT22;54794;48.348;7.878;2024-01-06T08:26:22;8.90;68.30
68011;DHT22;54794;48.348;7.878;2024-01-06T08:28:49;9.10;68.20
68011;DHT22;54794;48.348;7.878;2024-01-06T08:31:16;8.50;68.00
68011;DHT22;54794;48.348;7.878;2024-01-06T08:33:49;8.60;68.00
68011;DHT22;54794;48.348;7.878;2024-01-06T08:36:17;8.80;68.20
68011;DHT22;54794;48.348;7.878;2024-01-06T08:38:44;8.70;68.20
68011;DHT22;54794;48.348;7.878;2024-01-06T08:41:11;8.60;68.20
68011;DHT22;54794;48.348;7.878;2024-01-06T08:43:38;8.70;68.20
68011;DHT22;54794;48.348;7.878;2024-01-06T08:46:07;8.70;68.20
68011;DHT22;54794;48.348;7.878;2024-01-06T08:48:37;9.50;68.70
68011;DHT22;54794;48.348;7.878;2024-01-06T08:51:04;8.60;68.20
68011;DHT22;54794;48.348;7.878;2024-01-06T08:53:31;8.70;68.20
68011;DHT22;54794;48.348;7.878;2024-01-06T08:55:58;8.80;68.30
68011;DHT22;54794;48.348;7.878;2024-01-06T08:58:24;8.80;68.40
68011;DHT22;54794;48.348;7.878;2024-01-06T09:00:51;8.80;68.30
68011;DHT22;54794;48.348;7.878;2024-01-06T09:03:19;8.90;68.30
68011;DHT22;54794;48.348;7.878;2024-01-06T09:05:53;8.90;68.30
68011;DHT22;54794;48.348;7.878;2024-01-06T09:08:21;9.00;68.40
68011;DHT22;54794;48.348;7.878;2024-01-06T09:10:49;9.00;68.40
68011;DHT22;54794;48.348;7.878;2024-01-06T09:13:18;9.00;68.40
68011;DHT22;54794;48.348;7.878;2024-01-06T09:15:45;9.30;68.50
68011;DHT22;54794;48.348;7.878;2024-01-06T09:18:11;9.10;68.30
68011;DHT22;54794;48.348;7.878;2024-01-06T09:20:40;9.10;68.30
68011;DHT22;54794;48.348;7.878;2024-01-06T09:23:07;9.20;68.30
68011;DHT22;54794;48.348;7.878;2024-01-06T09:25:33;9.20;68.30
68011;DHT22;54794;48.348;7.878;2024-01-06T09:28:00;9.40;68.40
68011;DHT22;54794;48.348;7.878;2024-01-06T09:30:27;9.30;68.30
68011;DHT22;54794;48.348;7.878;2024-01-06T09:32:54;9.30;68.30
68011;DHT22;54794;48.348;7.878;2024-01-06T09:35:21;9.50;68.40
68011;DHT22;54794;48.348;7.878;2024-01-06T09:37:48;9.30;68.20
68011;DHT22;54794;48.348;7.878;2024-01-06T09:40:21;9.50;68.20
68011;DHT22;54794;48.348;7.878;2024-01-06T09:42:50;9.50;68.20
68011;DHT22;54794;48.348;7.878;2024-01-06T09:45:17;9.70;68.30
68011;DHT22;54794;48.348;7.878;2024-01-06T09:47:49;9.60;68.00
68011;DHT22;54794;48.348;7.878;2024-01-06T09:50:20;9.60;67.90
68011;DHT22;54794;48.348;7.878;2024-01-06T09:52:48;9.70;68.00
68011;DHT22;54794;48.348;7.878;2024-01-06T09:55:24;9.60;68.00
68011;DHT22;54794;48.348;7.878;2024-01-06T09:57:53;9.80;68.00
68011;DHT22;54794;48.348;7.878;2024-01-06T10:00:21;10.30;68.30
68011;DHT22;54794;48.348;7.878;2024-01-06T10:02:49;9.70;68.00
68011;DHT22;54794;48.348;7.878;2024-01-06T10:05:18;9.60;67.80
68011;DHT22;54794;48.348;7.878;2024-01-06T10:07:46;9.80;67.80
68011;DHT22;54794;48.348;7.878;2024-01-06T10:10:14;9.80;67.60
68011;DHT22;54794;48.348;7.878;2024-01-06T10:12:42;10.00;67.70
68011;DHT22;54794;48.348;7.878;2024-01-06T10:15:10;9.80;67.50
68011;DHT22;54794;48.348;7.878;2024-01-06T10:17:41;9.70;67.20
68011;DHT22;54794;48.348;7.878;2024-01-06T10:20:10;9.90;67.30
68011;DHT22;54794;48.348;7.878;2024-01-06T10:22:40;9.90;67.20
68011;DHT22;54794;48.348;7.878;2024-01-06T10:25:09;9.90;67.10
68011;DHT22;54794;48.348;7.878;2024-01-06T10:27:38;9.90;67.10
68011;DHT22;54794;48.348;7.878;2024-01-06T10:30:07;9.80;67.00
68011;DHT22;54794;48.348;7.878;2024-01-06T10:32:36;9.90;67.10
68011;DHT22;54794;48.348;7.878;2024-01-06T10:35:04;10.20;67.20
68011;DHT22;54794;48.348;7.878;2024-01-06T10:37:33;10.00;67.00
68011;DHT22;54794;48.348;7.878;2024-01-06T10:40:10;10.00;67.00
68011;DHT22;54794;48.348;7.878;2024-01-06T10:42:45;10.00;66.90
68011;DHT22;54794;48.348;7.878;2024-01-06T10:45:13;10.20;67.10
68011;DHT22;54794;48.348;7.878;2024-01-06T10:47:42;9.80;66.90
68011;DHT22;54794;48.348;7.878;2024-01-06T10:50:10;10.00;67.00
68011;DHT22;54794;48.348;7.878;2024-01-06T10:52:41;10.10;67.10
68011;DHT22;54794;48.348;7.878;2024-01-06T10:55:09;9.90;66.90
68011;DHT22;54794;48.348;7.878;2024-01-06T10:57:37;10.00;66.90
68011;DHT22;54794;48.348;7.878;2024-01-06T11:00:05;10.10;67.10
68011;DHT22;54794;48.348;7.878;2024-01-06T11:02:34;10.20;66.80
68011;DHT22;54794;48.348;7.878;2024-01-06T11:05:01;9.80;66.40
68011;DHT22;54794;48.348;7.878;2024-01-06T11:07:29;10.20;66.70
68011;DHT22;54794;48.348;7.878;2024-01-06T11:10:19;10.00;66.60
68011;DHT22;54794;48.348;7.878;2024-01-06T11:12:45;10.10;66.70
68011;DHT22;54794;48.348;7.878;2024-01-06T11:15:46;10.20;66.70
68011;DHT22;54794;48.348;7.878;2024-01-06T11:18:38;10.20;66.50
68011;DHT22;54794;48.348;7.878;2024-01-06T11:21:22;10.20;66.50
68011;DHT22;54794;48.348;7.878;2024-01-06T11:26:42;10.30;66.40
68011;DHT22;54794;48.348;7.878;2024-01-06T11:29:10;10.50;66.60
68011;DHT22;54794;48.348;7.878;2024-01-06T11:31:38;10.30;66.50
68011;DHT22;54794;48.348;7.878;2024-01-06T11:34:36;10.20;66.40
68011;DHT22;54794;48.348;7.878;2024-01-06T11:53:34;10.20;66.20
68011;DHT22;54794;48.348;7.878;2024-01-06T11:56:04;10.20;66.10
68011;DHT22;54794;48.348;7.878;2024-01-06T11:58:52;10.20;66.30
68011;DHT22;54794;48.348;7.878;2024-01-06T12:01:19;10.10;66.20
68011;DHT22;54794;48.348;7.878;2024-01-06T12:03:54;10.10;66.40
68011;DHT22;54794;48.348;7.878;2024-01-06T12:06:26;10.40;66.50
68011;DHT22;54794;48.348;7.878;2024-01-06T12:09:12;10.70;66.70
68011;DHT22;54794;48.348;7.878;2024-01-06T12:11:42;10.20;66.40
68011;DHT22;54794;48.348;7.878;2024-01-06T12:14:13;10.20;66.50
68011;DHT22;54794;48.348;7.878;2024-01-06T12:16:46;10.30;66.50
68011;DHT22;54794;48.348;7.878;2024-01-06T12:19:51;10.30;66.40
68011;DHT22;54794;48.348;7.878;2024-01-06T12:23:06;10.80;66.70
68011;DHT22;54794;48.348;7.878;2024-01-06T12:25:34;10.30;66.30
68011;DHT22;54794;48.348;7.878;2024-01-06T12:28:09;10.70;66.60
68011;DHT22;54794;48.348;7.878;2024-01-06T12:31:38;10.30;66.30
68011;DHT22;54794;48.348;7.878;2024-01-06T12:34:47;9.90;65.90
68011;DHT22;54794;48.348;7.878;2024-01-06T12:37:24;10.40;66.20
68011;DHT22;54794;48.348;7.878;2024-01-06T12:40:05;10.10;66.00
68011;DHT22;54794;48.348;7.878;2024-01-06T12:42:44;10.30;66.10
68011;DHT22;54794;48.348;7.878;2024-01-06T12:45:19;10.90;66.60
68011;DHT22;54794;48.348;7.878;2024-01-06T12:47:47;11.10;66.70
68011;DHT22;54794;48.348;7.878;2024-01-06T12:50:21;10.20;66.20
68011;DHT22;54794;48.348;7.878;2024-01-06T12:52:51;10.10;66.10
68011;DHT22;54794;48.348;7.878;2024-01-06T12:55:22;10.60;66.50
68011;DHT22;54794;48.348;7.878;2024-01-06T12:57:54;10.40;66.30
68011;DHT22;54794;48.348;7.878;2024-01-06T13:00:31;10.40;66.20
68011;DHT22;54794;48.348;7.878;2024-01-06T13:03:10;10.20;66.00
68011;DHT22;54794;48.348;7.878;2024-01-06T13:06:23;10.40;66.10
68011;DHT22;54794;48.348;7.878;2024-01-06T13:09:29;10.40;66.00
68011;DHT22;54794;48.348;7.878;2024-01-06T13:11:56;10.20;66.00
68011;DHT22;54794;48.348;7.878;2024-01-06T13:14:35;11.10;66.60
68011;DHT22;54794;48.348;7.878;2024-01-06T13:17:06;10.70;66.20
68011;DHT22;54794;48.348;7.878;2024-01-06T13:19:33;11.10;66.40
68011;DHT22;54794;48.348;7.878;2024-01-06T13:22:06;10.10;65.80
68011;DHT22;54794;48.348;7.878;2024-01-06T13:25:07;10.40;66.00
68011;DHT22;54794;48.348;7.878;2024-01-06T13:27:42;10.40;66.00
68011;DHT22;54794;48.348;7.878;2024-01-06T13:30:15;10.40;65.90
68011;DHT22;54794;48.348;7.878;2024-01-06T13:32:47;10.50;66.10
68011;DHT22;54794;48.348;7.878;2024-01-06T13:35:25;10.40;66.00
68011;DHT22;54794;48.348;7.878;2024-01-06T13:38:04;11.00;66.40
68011;DHT22;54794;48.348;7.878;2024-01-06T13:40:42;10.30;66.10
68011;DHT22;54794;48.348;7.878;2024-01-06T13:43:24;10.50;66.20
68011;DHT22;54794;48.348;7.878;2024-01-06T13:46:35;10.20;66.20
68011;DHT22;54794;48.348;7.878;2024-01-06T13:49:12;10.40;66.40
68011;DHT22;54794;48.348;7.878;2024-01-06T13:51:48;10.20;66.40
68011;DHT22;54794;48.348;7.878;2024-01-06T13:58:49;10.10;66.60
68011;DHT22;54794;48.348;7.878;2024-01-06T14:02:15;10.10;66.70
68011;DHT22;54794;48.348;7.878;2024-01-06T14:04:46;10.00;66.60
68011;DHT22;54794;48.348;7.878;2024-01-06T14:07:15;10.00;66.60
68011;DHT22;54794;48.348;7.878;2024-01-06T14:09:50;10.50;67.00
68011;DHT22;54794;48.348;7.878;2024-01-06T14:12:23;9.90;66.70
68011;DHT22;54794;48.348;7.878;2024-01-06T14:14:51;10.10;67.00
68011;DHT22;54794;48.348;7.878;2024-01-06T14:17:27;9.90;66.80
68011;DHT22;54794;48.348;7.878;2024-01-06T14:19:57;10.00;67.00
68011;DHT22;54794;48.348;7.878;2024-01-06T14:22:31;10.70;67.40
68011;DHT22;54794;48.348;7.878;2024-01-06T14:24:58;10.30;67.20
68011;DHT22;54794;48.348;7.878;2024-01-06T14:27:31;9.80;67.00
68011;DHT22;54794;48.348;7.878;2024-01-06T14:30:01;9.80;67.00
68011;DHT22;54794;48.348;7.878;2024-01-06T14:32:28;10.00;67.20
68011;DHT22;54794;48.348;7.878;2024-01-06T14:35:18;10.30;67.30
68011;DHT22;54794;48.348;7.878;2024-01-06T14:46:18;10.00;67.20
68011;DHT22;54794;48.348;7.878;2024-01-06T14:52:43;10.70;67.50
68011;DHT22;54794;48.348;7.878;2024-01-06T14:56:01;10.00;67.30
68011;DHT22;54794;48.348;7.878;2024-01-06T14:59:05;10.40;67.60
68011;DHT22;54794;48.348;7.878;2024-01-06T15:10:23;9.90;67.20
68011;DHT22;54794;48.348;7.878;2024-01-06T15:22:46;9.80;67.00
68011;DHT22;54794;48.348;7.878;2024-01-06T15:26:05;9.90;67.50
68011;DHT22;54794;48.348;7.878;2024-01-06T15:36:39;9.80;67.30
68011;DHT22;54794;48.348;7.878;2024-01-06T15:40:46;9.80;67.20
68011;DHT22;54794;48.348;7.878;2024-01-06T15:44:22;9.80;67.40
68011;DHT22;54794;48.348;7.878;2024-01-06T15:55:57;9.80;67.20
68011;DHT22;54794;48.348;7.878;2024-01-06T15:59:03;9.70;67.20
68011;DHT22;54794;48.348;7.878;2024-01-06T16:05:41;9.70;67.20
68011;DHT22;54794;48.348;7.878;2024-01-06T16:16:24;9.70;67.20
68011;DHT22;54794;48.348;7.878;2024-01-06T16:27:01;9.40;67.00
68011;DHT22;54794;48.348;7.878;2024-01-06T16:34:20;9.70;67.20
68011;DHT22;54794;48.348;7.878;2024-01-06T16:41:07;9.70;67.30
68011;DHT22;54794;48.348;7.878;2024-01-06T16:44:11;9.70;67.30
68011;DHT22;54794;48.348;7.878;2024-01-06T16:47:15;9.70;67.30
68011;DHT22;54794;48.348;7.878;2024-01-06T16:50:25;10.20;67.60
68011;DHT22;54794;48.348;7.878;2024-01-06T16:53:24;9.80;67.30
68011;DHT22;54794;48.348;7.878;2024-01-06T17:00:51;9.70;67.20
68011;DHT22;54794;48.348;7.878;2024-01-06T17:07:40;9.70;67.20
68011;DHT22;54794;48.348;7.878;2024-01-06T17:11:03;9.60;67.80
68011;DHT22;54794;48.348;7.878;2024-01-06T17:14:34;9.90;67.40
68011;DHT22;54794;48.348;7.878;2024-01-06T17:20:54;9.70;67.30
68011;DHT22;54794;48.348;7.878;2024-01-06T17:23:35;9.40;67.10
68011;DHT22;54794;48.348;7.878;2024-01-06T17:34:42;9.70;67.30
68011;DHT22;54794;48.348;7.878;2024-01-06T17:37:12;9.70;67.30
68011;DHT22;54794;48.348;7.878;2024-01-06T17:51:05;9.60;67.30
68011;DHT22;54794;48.348;7.878;2024-01-06T17:58:36;9.60;67.30
68011;DHT22;54794;48.348;7.878;2024-01-06T18:01:15;9.60;67.30
68011;DHT22;54794;48.348;7.878;2024-01-06T18:49:14;9.60;67.60
68011;DHT22;54794;48.348;7.878;2024-01-06T18:51:58;9.60;67.60
68011;DHT22;54794;48.348;7.878;2024-01-06T18:54:44;9.50;67.50
68011;DHT22;54794;48.348;7.878;2024-01-06T19:22:42;9.50;67.60
68011;DHT22;54794;48.348;7.878;2024-01-06T19:25:34;9.50;68.10
68011;DHT22;54794;48.348;7.878;2024-01-06T19:28:02;9.50;67.60
68011;DHT22;54794;48.348;7.878;2024-01-06T19:30:45;9.50;67.70
68011;DHT22;54794;48.348;7.878;2024-01-06T20:11:28;9.70;67.60
68011;DHT22;54794;48.348;7.878;2024-01-06T20:27:20;9.40;67.60
68011;DHT22;54794;48.348;7.878;2024-01-06T20:31:37;9.40;67.60
68011;DHT22;54794;48.348;7.878;2024-01-06T20:59:58;9.30;67.90